METAR UND TAF INFORMATION
EDDH 180750Z 22005KT CAVOK M04/M05 Q1015 R88/650394 NOSIG

 FLUGHAFENKARTE

 RUNWAY INFORMATION
Runway 05 Runway length 10663 ft Runway width 150 ft
Runway elevation 32 ft Runway displaced threshold 978 ft Runway heading 50
Runway 23 Runway length 10663 ft Runway width 150 ft
Runway elevation 43 ft Runway displaced threshold 512 ft Runway heading 230
Runway 15 Runway length 12028 ft Runway width 150 ft
Runway elevation 53 ft Runway displaced threshold 0 ft Runway heading 153
Runway 33 Runway length 12028 ft Runway width 150 ft
Runway elevation 35 ft Runway displaced threshold 1464 ft Runway heading 333

 AIRPORT FREQUENCIES
Type ATIS Name ATIS Frequency 123.125 MHZ
Type DIR Name DIRECTOR Frequency 118.2 MHZ
Type GND Name GND Frequency 121.8 MHZ
Type RDR Name BREMEN RAD Frequency 134.25 MHZ
Type RMP Name APRON Frequency 121.7 MHZ
Type TWR Name TWR Frequency 126.85 MHZ

 AIRPORT NEAR NAVIGATION AIDS
Type DME Name Alster Frequency 115800 KHZ
Type NDB Name Hamburg West Frequency 351 KHZ
Type NDB Name Hamburg North Frequency 323 KHZ
Type VORTAC Name Hamburg Frequency 113100 KHZ
Type NDB Name Hamburg Frequency 339 KHZ



Version 5.0.0: Changelog

Impressum | Datenschutzerklärung

Virtual Airlines Manager